Accueil
METAR-TAF:

METAR-TAF

Aéroports :

Aéroport de Guernesey

Guernesey,

latitude: 49-26N, longitude: 002-36W, altitude: 102 m

Observation

Le bulletin a été fait il y a 42 minutes, à 05:50 UTC
Vent 3 kt de nord-est
Température 10°C
Humidité 76%
Pression 1036 hPa
Visibilité 10 km ou plus
Nuages épars à une hauteur de 2800 ft

METAR: EGJB 240550Z 04003KT 9999 SCT028 10/06 Q1036

Heure: 07:32 (06:32 UTC)

Prévision

Le bulletin a été fait il y a 1 heure et 25 minutes, à 05:07 UTC
Prévision valable du 24 à 06 UTC au 24 à 15 UTC
Vent 7 kt de nord/nord-est
Visibilité 10 km ou plus
Nuages épars à une hauteur de 3000 ft

TAF: EGJB 240507Z 2406/2415 02007KT 9999 SCT030

Observations et prévisions météorologiques de plus de 4000 aéroports (messages METAR et TAF).

Les stations disponibles sont représentées par des disques jaunes et rouges sur la carte.

Passer la souris dessus pour voir le nom de la station.

Cliquer dessus pour voir les observations et prévisions météorologiques.

Pour changer de carte: cliquez sur les boutons verts avec une croix noire pour zoomer, sur le bouton vert avec un tiret pour effectuer un zoom arrière, ou sur les flèches vertes pour les cartes adjacentes.


METAR-TAF: